Time;durP1;ratioP1;P1;durP2;ratioP2;P2;SDS_P1;SDS_P2;PMS_P1;PMS_P2;Temp;Humidity;BMP_temperature;BMP_pressure;BME280_temperature;BME280_humidity;BME280_pressure;Samples;Min_cycle;Max_cycle;Signal;HPM_P1;HPM_P2
2023/06/14 00:00:22;;;;;;;5.40;4.93;;;23.90;50.80;;;;;;4984896;28;20042;-86
2023/06/14 00:02:48;;;;;;;4.85;4.40;;;23.80;50.70;;;;;;4981203;28;20038;-86
2023/06/14 00:05:14;;;;;;;6.00;5.50;;;23.80;50.80;;;;;;4985108;28;20030;-85
2023/06/14 00:07:44;;;;;;;5.93;5.32;;;23.80;51.00;;;;;;4983377;28;20450;-85
2023/06/14 00:10:11;;;;;;;6.03;5.43;;;23.70;50.80;;;;;;4986788;28;20339;-87
2023/06/14 00:12:41;;;;;;;5.75;5.20;;;23.70;50.90;;;;;;4982914;28;20078;-88
2023/06/14 00:15:27;;;;;;;5.70;5.20;;;23.50;50.70;;;;;;4979760;28;20198;-88
2023/06/14 00:17:54;;;;;;;5.88;5.43;;;23.50;50.70;;;;;;4977141;28;20050;-86
2023/06/14 00:20:21;;;;;;;5.95;5.45;;;23.50;50.80;;;;;;4983585;28;20034;-87
2023/06/14 00:22:47;;;;;;;5.50;5.00;;;23.40;50.70;;;;;;4983626;28;20572;-89
2023/06/14 00:25:14;;;;;;;5.78;5.28;;;23.40;50.80;;;;;;4986396;28;20113;-90
2023/06/14 00:27:43;;;;;;;6.13;5.63;;;23.30;50.70;;;;;;4989276;28;20117;-89
2023/06/14 00:30:10;;;;;;;5.93;5.32;;;23.30;50.80;;;;;;4965922;28;20140;-87
2023/06/14 00:32:36;;;;;;;6.00;5.25;;;23.20;50.70;;;;;;4982957;28;20042;-88
2023/06/14 00:35:07;;;;;;;5.55;5.05;;;23.20;50.80;;;;;;4982839;28;20739;-87
2023/06/14 00:37:33;;;;;;;6.45;5.75;;;23.10;50.70;;;;;;4982451;28;20346;-87
2023/06/14 00:39:59;;;;;;;6.05;5.30;;;23.10;50.80;;;;;;4987043;28;20030;-86
2023/06/14 00:42:27;;;;;;;8.07;5.57;;;23.00;50.70;;;;;;4979855;28;20260;-85
2023/06/14 00:44:56;;;;;;;6.00;5.50;;;23.00;50.80;;;;;;4983058;28;20484;-86
2023/06/14 00:47:22;;;;;;;6.28;5.68;;;22.90;50.70;;;;;;4980239;28;20129;-85
2023/06/14 00:49:54;;;;;;;5.40;5.00;;;22.90;50.80;;;;;;4985158;28;20113;-86
2023/06/14 00:52:27;;;;;;;5.53;5.10;;;22.80;50.70;;;;;;4982388;28;20058;-87
2023/06/14 00:54:54;;;;;;;5.97;5.40;;;22.70;50.60;;;;;;4983473;28;20050;-87
2023/06/14 00:57:21;;;;;;;5.13;4.47;;;22.70;50.70;;;;;;4983393;28;20054;-86
2023/06/14 00:59:48;;;;;;;5.28;4.78;;;22.70;50.80;;;;;;4982959;28;20041;-86
2023/06/14 01:02:16;;;;;;;6.07;5.55;;;22.60;50.70;;;;;;4969155;28;20503;-87
2023/06/14 01:04:49;;;;;;;;;;;22.50;50.60;;;;;;4964782;28;20034;-88
2023/06/14 01:07:24;;;;;;;6.13;5.63;;;22.50;50.60;;;;;;4984539;28;19983;-85
2023/06/14 01:10:06;;;;;;;5.80;5.30;;;22.50;50.60;;;;;;4983958;28;20041;-87
2023/06/14 01:13:07;;;;;;;6.38;5.60;;;22.30;50.30;;;;;;4980227;28;20433;-86
2023/06/14 01:15:35;;;;;;;7.10;5.60;;;22.30;50.50;;;;;;4965970;28;20035;-85
2023/06/14 01:18:16;;;;;;;6.63;5.20;;;22.30;50.50;;;;;;4974280;28;20088;-85
2023/06/14 01:20:44;;;;;;;6.20;5.60;;;22.20;50.40;;;;;;4982095;28;20090;-84
2023/06/14 01:23:12;;;;;;;6.93;5.57;;;22.10;50.30;;;;;;4980745;28;20038;-85
2023/06/14 01:25:38;;;;;;;6.25;5.65;;;22.10;50.60;;;;;;4971655;28;20117;-85
2023/06/14 01:28:16;;;;;;;6.03;5.53;;;22.00;50.40;;;;;;4981281;28;20529;-84
2023/06/14 01:31:04;;;;;;;6.43;5.80;;;22.00;50.40;;;;;;4991175;28;20042;-84
2023/06/14 01:33:32;;;;;;;5.38;4.88;;;22.00;50.50;;;;;;4982654;28;20094;-84
2023/06/14 01:36:00;;;;;;;5.78;5.28;;;21.90;50.40;;;;;;4983334;28;20027;-86
2023/06/14 01:38:31;;;;;;;5.70;5.20;;;21.90;50.50;;;;;;4968538;28;20077;-84
2023/06/14 01:40:59;;;;;;;5.97;5.45;;;21.80;50.40;;;;;;4983648;28;20034;-85
2023/06/14 01:43:28;;;;;;;6.03;5.53;;;21.80;50.50;;;;;;4980807;28;20486;-85
2023/06/14 01:45:55;;;;;;;5.90;5.40;;;21.70;50.30;;;;;;4966721;28;20088;-88
2023/06/14 01:48:22;;;;;;;6.00;5.40;;;21.70;50.40;;;;;;4986708;28;20061;-89
2023/06/14 01:50:49;;;;;;;5.47;5.00;;;21.70;50.50;;;;;;4987199;28;20664;-86
2023/06/14 01:53:21;;;;;;;5.90;5.40;;;21.60;50.30;;;;;;4986709;28;20038;-87
2023/06/14 01:55:48;;;;;;;5.68;5.18;;;21.50;50.20;;;;;;4986339;28;20408;-86
2023/06/14 01:58:18;;;;;;;6.13;5.45;;;21.50;50.30;;;;;;4983155;28;20166;-88
2023/06/14 02:00:48;;;;;;;5.93;5.30;;;21.50;50.30;;;;;;4986448;28;20042;-85
2023/06/14 02:03:15;;;;;;;6.30;5.70;;;21.40;50.20;;;;;;4965780;28;20122;-87
2023/06/14 02:05:41;;;;;;;5.55;5.10;;;21.40;50.30;;;;;;4994097;28;20030;-86
2023/06/14 02:08:10;;;;;;;5.00;4.55;;;21.30;50.10;;;;;;4985148;28;20034;-87
2023/06/14 02:10:37;;;;;;;5.57;4.95;;;21.30;50.20;;;;;;4981111;28;20034;-86
2023/06/14 02:13:04;;;;;;;5.55;5.05;;;21.20;50.10;;;;;;4985412;28;20050;-89
2023/06/14 02:15:33;;;;;;;7.45;5.30;;;21.20;50.10;;;;;;4986613;28;20031;-86
2023/06/14 02:18:05;;;;;;;5.20;4.80;;;21.10;50.00;;;;;;4981372;28;20041;-87
2023/06/14 02:20:34;;;;;;;4.63;4.22;;;21.10;50.10;;;;;;4968410;28;20034;-86
2023/06/14 02:23:03;;;;;;;5.45;4.95;;;21.00;49.90;;;;;;4969904;28;20034;-89
2023/06/14 02:25:34;;;;;;;5.70;5.10;;;21.00;50.00;;;;;;4969024;28;20545;-85
2023/06/14 02:28:00;;;;;;;4.53;3.90;;;20.90;49.90;;;;;;4984124;28;20061;-87
2023/06/14 02:30:27;;;;;;;5.68;4.53;;;20.90;49.90;;;;;;4984359;28;20029;-86
2023/06/14 02:32:57;;;;;;;4.85;4.43;;;20.90;50.10;;;;;;4985309;28;20034;-87
2023/06/14 02:35:27;;;;;;;5.15;4.50;;;20.80;49.90;;;;;;4983108;28;20801;-85
2023/06/14 02:37:56;;;;;;;5.72;5.22;;;20.80;50.10;;;;;;4988490;28;20092;-86
2023/06/14 02:40:23;;;;;;;5.28;4.78;;;20.80;50.00;;;;;;4989500;28;20030;-86
2023/06/14 02:42:51;;;;;;;4.57;4.18;;;20.80;50.00;;;;;;4987306;28;20756;-85
2023/06/14 02:45:17;;;;;;;6.50;4.00;;;20.70;50.50;;;;;;4972900;28;20038;-86
2023/06/14 02:47:43;;;;;;;5.85;4.03;;;20.60;49.80;;;;;;4988426;28;20078;-88
2023/06/14 02:50:12;;;;;;;5.38;4.88;;;20.60;49.80;;;;;;4991357;28;20042;-87
2023/06/14 02:52:40;;;;;;;4.80;4.30;;;20.50;49.60;;;;;;4986681;28;20038;-88
2023/06/14 02:55:08;;;;;;;4.90;4.50;;;20.50;49.70;;;;;;4988816;28;20034;-89
2023/06/14 02:57:34;;;;;;;4.22;3.78;;;20.50;49.80;;;;;;4995420;28;20054;-86
2023/06/14 03:00:05;;;;;;;5.05;4.65;;;20.40;49.70;;;;;;4972710;28;20045;-87
2023/06/14 03:02:34;;;;;;;4.95;4.20;;;20.40;49.70;;;;;;4981313;28;20038;-88
2023/06/14 03:05:02;;;;;;;5.25;4.43;;;20.30;49.60;;;;;;4984006;28;20033;-86
2023/06/14 03:07:31;;;;;;;4.88;4.13;;;20.30;49.60;;;;;;4987299;28;20046;-85
2023/06/14 03:10:02;;;;;;;4.93;4.53;;;20.20;49.50;;;;;;4987808;28;20030;-86
2023/06/14 03:12:29;;;;;;;5.88;3.90;;;20.20;49.60;;;;;;4988792;28;20058;-85
2023/06/14 03:15:03;;;;;;;7.65;4.70;;;20.10;49.40;;;;;;4990076;28;20034;-85
2023/06/14 03:17:45;;;;;;;4.22;3.83;;;20.10;49.50;;;;;;4972915;28;20219;-85
2023/06/14 03:20:18;;;;;;;4.13;3.78;;;20.10;49.50;;;;;;4987082;28;20537;-83
2023/06/14 03:22:47;;;;;;;4.30;3.90;;;20.00;49.40;;;;;;4986666;28;20436;-83
2023/06/14 03:25:18;;;;;;;4.70;4.28;;;20.00;49.50;;;;;;4987363;28;20150;-83
2023/06/14 03:27:50;;;;;;;4.57;4.18;;;19.90;49.30;;;;;;5003392;28;20110;-86
2023/06/14 03:30:24;;;;;;;5.25;3.97;;;19.90;49.40;;;;;;4984155;28;20108;-86
2023/06/14 03:32:55;;;;;;;4.60;4.20;;;19.80;49.20;;;;;;4986586;28;20543;-85
2023/06/14 03:35:30;;;;;;;4.85;4.18;;;19.80;49.30;;;;;;4985798;28;20074;-85
2023/06/14 03:37:56;;;;;;;5.03;4.05;;;19.80;49.40;;;;;;4979930;28;20097;-86
2023/06/14 03:40:26;;;;;;;4.72;4.32;;;19.70;49.30;;;;;;4989142;28;20030;-88
2023/06/14 03:43:01;;;;;;;5.53;4.38;;;19.70;49.40;;;;;;4981703;28;20492;-89
2023/06/14 03:45:30;;;;;;;5.28;4.78;;;19.60;49.20;;;;;;4989429;28;20104;-86
2023/06/14 03:48:06;;;;;;;5.88;4.60;;;19.60;49.30;;;;;;5001330;28;20058;-87
2023/06/14 03:50:33;;;;;;;6.13;5.53;;;19.50;49.20;;;;;;4987110;28;20177;-85
2023/06/14 03:53:01;;;;;;;6.70;4.85;;;19.50;49.30;;;;;;4982623;28;20053;-86
2023/06/14 03:55:27;;;;;;;5.30;4.78;;;19.50;49.40;;;;;;4989549;28;20038;-86
2023/06/14 03:57:54;;;;;;;5.75;4.63;;;19.50;49.50;;;;;;4984365;28;20628;-86
2023/06/14 04:00:40;;;;;;;4.78;4.30;;;19.40;50.00;;;;;;4920201;29;20036;-86
2023/06/14 04:03:06;;;;;;;5.68;5.18;;;19.40;49.50;;;;;;4894958;29;20060;-87
2023/06/14 04:05:33;;;;;;;4.80;4.40;;;19.40;49.60;;;;;;4933905;28;20054;-85
2023/06/14 04:08:00;;;;;;;5.50;4.88;;;19.30;49.50;;;;;;4984388;28;20034;-85
2023/06/14 04:10:27;;;;;;;6.50;4.55;;;19.30;49.60;;;;;;4987218;28;20057;-85
2023/06/14 04:12:56;;;;;;;5.35;4.85;;;19.30;49.70;;;;;;4983310;28;20046;-86
2023/06/14 04:15:23;;;;;;;5.40;4.88;;;19.20;49.50;;;;;;4986622;28;20022;-85
2023/06/14 04:17:57;;;;;;;6.90;5.18;;;19.20;49.70;;;;;;4982865;28;20149;-85
2023/06/14 04:20:43;;;;;;;5.47;4.97;;;19.20;49.80;;;;;;4939287;28;20114;-84
2023/06/14 04:23:30;;;;;;;6.28;5.28;;;19.10;49.60;;;;;;4898623;29;20142;-84
2023/06/14 04:26:01;;;;;;;5.20;4.70;;;19.10;50.20;;;;;;4976356;28;20042;-86
2023/06/14 04:28:31;;;;;;;4.93;4.53;;;19.10;49.70;;;;;;4979438;28;20031;-84
2023/06/14 04:31:01;;;;;;;5.57;5.07;;;19.10;49.80;;;;;;4983876;28;20113;-82
2023/06/14 04:33:31;;;;;;;5.15;4.65;;;19.10;49.80;;;;;;5002289;28;20371;-82
2023/06/14 04:35:57;;;;;;;5.93;4.40;;;19.10;49.90;;;;;;4985044;28;20565;-84
2023/06/14 04:38:34;;;;;;;6.15;4.85;;;19.10;49.90;;;;;;4985574;28;20040;-83
2023/06/14 04:41:05;;;;;;;5.13;4.40;;;19.00;49.80;;;;;;5000064;28;20038;-85
2023/06/14 04:43:37;;;;;;;4.95;4.22;;;19.00;49.80;;;;;;4983787;28;20046;-83
2023/06/14 04:46:10;;;;;;;5.43;4.47;;;19.00;49.80;;;;;;5000795;28;20030;-84
2023/06/14 04:48:42;;;;;;;;;;;19.00;49.80;;;;;;4977700;28;20038;-83
2023/06/14 04:51:10;;;;;;;4.15;3.78;;;19.00;49.70;;;;;;4985021;28;19960;-84
2023/06/14 04:53:37;;;;;;;4.75;4.03;;;19.00;49.60;;;;;;4988069;28;20054;-87
2023/06/14 04:56:04;;;;;;;4.95;4.25;;;19.00;49.60;;;;;;4990977;28;20042;-87
2023/06/14 04:58:35;;;;;;;4.18;3.85;;;18.90;49.50;;;;;;4990043;28;20504;-86
2023/06/14 05:01:09;;;;;;;4.75;3.90;;;19.00;49.70;;;;;;4985805;28;20347;-87
2023/06/14 05:03:35;;;;;;;4.10;3.70;;;18.90;49.50;;;;;;4987483;28;20400;-87
2023/06/14 05:06:02;;;;;;;5.20;4.15;;;18.90;49.50;;;;;;4972348;28;20121;-90
2023/06/14 05:08:31;;;;;;;4.07;3.47;;;19.00;49.60;;;;;;4982777;28;20034;-89
2023/06/14 05:10:59;;;;;;;4.28;3.15;;;18.90;49.30;;;;;;4981445;28;20501;-86
2023/06/14 05:13:29;;;;;;;6.57;4.00;;;18.90;49.20;;;;;;4997721;28;20557;-87
2023/06/14 05:15:59;;;;;;;3.55;3.25;;;19.00;49.30;;;;;;4979998;28;20041;-90
2023/06/14 05:18:25;;;;;;;3.47;3.17;;;19.00;49.20;;;;;;4977532;28;20129;-87
2023/06/14 05:20:51;;;;;;;3.95;3.30;;;19.00;49.10;;;;;;4980916;28;20141;-87
2023/06/14 05:23:17;;;;;;;5.57;3.50;;;19.00;48.90;;;;;;4981408;28;20151;-88
2023/06/14 05:25:47;;;;;;;4.72;3.63;;;19.10;49.00;;;;;;4981836;28;20355;-91
2023/06/14 05:28:33;;;;;;;4.20;3.17;;;19.10;48.80;;;;;;4959813;28;20433;-91
2023/06/14 05:31:15;;;;;;;4.18;3.47;;;19.20;48.70;;;;;;4984506;28;20398;-88
2023/06/14 05:33:41;;;;;;;4.30;3.20;;;19.30;48.60;;;;;;4982626;28;20072;-91
2023/06/14 05:36:08;;;;;;;3.38;3.10;;;19.40;48.60;;;;;;4985013;28;20359;-91
2023/06/14 05:38:34;;;;;;;4.22;3.45;;;19.50;48.60;;;;;;4982602;28;20041;-89
2023/06/14 05:41:08;;;;;;;3.17;2.85;;;19.60;48.50;;;;;;4980883;28;20030;-88
2023/06/14 05:43:34;;;;;;;4.13;3.10;;;19.70;48.40;;;;;;4981649;28;20041;-88
2023/06/14 05:46:02;;;;;;;4.78;3.33;;;19.90;48.60;;;;;;4980176;28;20034;-90
2023/06/14 05:48:29;;;;;;;3.67;2.63;;;20.00;48.50;;;;;;4985368;28;20046;-88
2023/06/14 05:50:56;;;;;;;3.53;2.78;;;20.20;48.50;;;;;;4986304;28;20448;-89
2023/06/14 05:53:25;;;;;;;4.43;3.20;;;20.40;48.60;;;;;;5002179;28;20540;-88
2023/06/14 05:55:57;;;;;;;3.33;3.03;;;20.60;48.60;;;;;;4971970;28;20030;-85
2023/06/14 05:58:23;;;;;;;6.47;4.45;;;20.80;48.60;;;;;;4983336;28;20221;-89
2023/06/14 06:00:49;;;;;;;3.30;2.92;;;21.00;48.60;;;;;;4978961;28;20047;-85
2023/06/14 06:03:15;;;;;;;3.05;2.78;;;21.20;48.60;;;;;;4982178;28;20155;-80
2023/06/14 06:05:41;;;;;;;4.10;3.05;;;21.50;49.10;;;;;;4977215;28;20364;-82
2023/06/14 06:08:08;;;;;;;3.35;3.05;;;21.70;50.00;;;;;;4980760;28;20037;-84
2023/06/14 06:10:37;;;;;;;5.07;2.97;;;21.90;50.70;;;;;;4976723;28;20353;-83
2023/06/14 06:13:03;;;;;;;3.65;3.35;;;22.20;51.30;;;;;;4971309;28;20495;-82
2023/06/14 06:15:30;;;;;;;4.28;3.88;;;22.50;52.10;;;;;;4975862;28;20141;-82
2023/06/14 06:17:56;;;;;;;4.40;3.53;;;22.70;52.40;;;;;;4972882;28;20044;-81
2023/06/14 06:20:27;;;;;;;4.28;3.88;;;23.00;52.80;;;;;;4981872;28;20732;-81
2023/06/14 06:22:54;;;;;;;3.25;2.92;;;23.20;52.80;;;;;;4974096;28;20057;-82
2023/06/14 06:25:26;;;;;;;3.92;3.47;;;23.60;53.00;;;;;;4977543;28;20405;-83
2023/06/14 06:27:54;;;;;;;5.10;3.53;;;23.90;52.80;;;;;;4977654;28;20057;-83
2023/06/14 06:30:26;;;;;;;3.97;3.35;;;24.20;52.50;;;;;;4976703;28;20061;-81
2023/06/14 06:32:53;;;;;;;3.90;3.33;;;24.60;52.80;;;;;;4979438;28;20041;-83
2023/06/14 06:35:19;;;;;;;3.90;2.88;;;25.00;52.10;;;;;;4976903;28;20042;-80
2023/06/14 06:37:45;;;;;;;3.90;2.95;;;25.40;51.40;;;;;;4977689;28;20104;-81
2023/06/14 06:40:12;;;;;;;2.65;2.45;;;25.80;50.90;;;;;;4974316;28;20042;-81
2023/06/14 06:42:38;;;;;;;4.30;3.00;;;26.20;50.10;;;;;;4976078;28;20503;-83
2023/06/14 06:45:08;;;;;;;3.70;3.10;;;26.50;49.50;;;;;;4977113;28;20034;-82
2023/06/14 06:47:37;;;;;;;3.00;2.70;;;26.90;49.60;;;;;;4976513;28;20054;-83
2023/06/14 06:50:04;;;;;;;3.58;3.25;;;27.20;49.10;;;;;;4992930;28;20045;-81
2023/06/14 06:52:30;;;;;;;4.90;2.90;;;27.40;48.20;;;;;;4990971;28;20663;-79
2023/06/14 06:54:59;;;;;;;3.00;2.58;;;27.70;47.90;;;;;;4975815;28;20113;-82
2023/06/14 06:57:31;;;;;;;2.65;2.42;;;28.00;47.60;;;;;;4973009;28;20461;-80
2023/06/14 07:00:00;;;;;;;2.92;2.67;;;28.30;47.20;;;;;;4976991;28;20085;-84
2023/06/14 07:02:26;;;;;;;4.35;2.80;;;28.60;46.70;;;;;;4977013;28;20186;-83
2023/06/14 07:04:53;;;;;;;3.20;2.90;;;29.00;46.10;;;;;;4974211;28;20284;-83
2023/06/14 07:07:19;;;;;;;5.68;3.55;;;29.30;45.50;;;;;;4976545;28;20196;-82
2023/06/14 07:09:49;;;;;;;4.35;2.28;;;29.70;44.90;;;;;;4980383;28;20035;-82
2023/06/14 07:12:15;;;;;;;4.32;2.67;;;30.10;44.30;;;;;;4977507;28;20034;-83
2023/06/14 07:14:44;;;;;;;2.63;2.42;;;30.30;43.80;;;;;;4981377;28;20031;-84
2023/06/14 07:17:10;;;;;;;4.05;2.70;;;30.60;43.30;;;;;;4986613;28;20684;-84
2023/06/14 07:19:37;;;;;;;4.10;2.60;;;30.80;43.00;;;;;;4972816;28;20066;-84
2023/06/14 07:22:03;;;;;;;4.10;2.85;;;30.80;43.00;;;;;;4977313;28;20065;-82
2023/06/14 07:24:29;;;;;;;4.88;2.55;;;30.80;43.00;;;;;;4994237;28;20046;-81
2023/06/14 07:26:56;;;;;;;4.72;2.67;;;30.70;43.00;;;;;;4980761;28;20034;-82
2023/06/14 07:29:22;;;;;;;3.58;2.50;;;30.80;43.10;;;;;;4982087;28;20038;-82
2023/06/14 07:31:51;;;;;;;5.82;2.67;;;30.80;43.10;;;;;;4981365;28;20101;-82
2023/06/14 07:34:17;;;;;;;3.60;2.40;;;31.20;42.70;;;;;;4979738;28;20034;-82
2023/06/14 07:37:03;;;;;;;3.00;2.63;;;31.70;42.00;;;;;;4961248;28;20481;-82
2023/06/14 07:39:30;;;;;;;5.60;2.85;;;32.20;41.40;;;;;;5003118;28;20033;-82
2023/06/14 07:41:56;;;;;;;5.30;2.58;;;32.60;40.70;;;;;;4981561;28;20046;-82
2023/06/14 07:44:29;;;;;;;3.80;2.47;;;33.00;40.10;;;;;;4981393;28;20069;-81
2023/06/14 07:46:58;;;;;;;6.70;3.42;;;33.40;39.50;;;;;;4981814;28;20141;-82
2023/06/14 07:49:24;;;;;;;3.45;2.15;;;33.90;39.00;;;;;;4987364;28;20091;-82
2023/06/14 07:51:50;;;;;;;4.35;2.30;;;34.30;38.50;;;;;;4976647;28;20042;-80
2023/06/14 07:54:24;;;;;;;3.70;2.60;;;34.70;38.00;;;;;;4987720;28;20030;-83
2023/06/14 07:56:51;;;;;;;3.65;2.65;;;35.10;37.60;;;;;;4979998;28;20073;-84
2023/06/14 07:59:17;;;;;;;3.35;2.40;;;35.40;37.20;;;;;;4983841;28;20045;-84
2023/06/14 08:01:46;;;;;;;3.95;2.55;;;35.60;36.80;;;;;;4990483;28;20042;-90
2023/06/14 08:04:15;;;;;;;3.40;2.40;;;35.50;36.90;;;;;;4985425;28;20034;-84
2023/06/14 08:06:51;;;;;;;2.40;2.08;;;35.20;37.40;;;;;;4979853;28;20102;-86
2023/06/14 08:09:19;;;;;;;2.70;2.30;;;34.90;38.00;;;;;;4975460;28;20107;-87
2023/06/14 08:11:46;;;;;;;3.53;2.35;;;34.50;38.50;;;;;;4983200;28;20033;-91
2023/06/14 08:14:15;;;;;;;2.75;2.05;;;34.20;38.80;;;;;;4998725;28;20105;-92
2023/06/14 08:16:44;;;;;;;3.55;2.28;;;33.90;38.90;;;;;;4985450;28;20031;-92
2023/06/14 08:19:13;;;;;;;3.80;2.20;;;33.60;39.00;;;;;;4983328;28;20046;-93
2023/06/14 08:21:43;;;;;;;3.58;2.05;;;33.50;39.30;;;;;;4984709;28;20058;-91
2023/06/14 08:24:12;;;;;;;5.45;2.42;;;33.30;39.40;;;;;;4985779;28;20038;-92
2023/06/14 08:26:39;;;;;;;2.88;2.47;;;33.10;39.30;;;;;;4982539;28;20035;-90
2023/06/14 08:29:06;;;;;;;3.53;2.45;;;33.10;39.40;;;;;;4985351;28;20261;-89
2023/06/14 08:31:33;;;;;;;6.38;2.60;;;33.00;39.30;;;;;;4979308;28;20413;-89
2023/06/14 08:34:02;;;;;;;5.22;2.63;;;32.90;39.10;;;;;;4983449;28;20070;-92
2023/06/14 08:36:28;;;;;;;3.45;2.17;;;32.90;39.20;;;;;;4981621;28;20030;-90
2023/06/14 08:38:55;;;;;;;2.80;2.50;;;32.90;39.10;;;;;;5009076;28;20440;-92
2023/06/14 08:41:24;;;;;;;2.33;2.13;;;32.80;39.10;;;;;;4966855;28;20046;-93
2023/06/14 08:43:53;;;;;;;4.80;2.83;;;32.90;39.00;;;;;;4986477;28;20112;-89
2023/06/14 08:46:27;;;;;;;2.90;2.08;;;32.90;38.90;;;;;;4989151;28;20603;-92
2023/06/14 08:48:56;;;;;;;2.58;2.15;;;32.90;38.60;;;;;;4986905;28;20032;-94
2023/06/14 08:51:33;;;;;;;6.25;2.17;;;33.00;38.50;;;;;;4991476;28;20029;-93
2023/06/14 08:54:03;;;;;;;2.22;2.05;;;33.00;38.30;;;;;;5008110;28;20057;-93
2023/06/14 08:56:31;;;;;;;3.38;2.33;;;33.00;38.30;;;;;;4992909;28;20445;-89
2023/06/14 08:59:02;;;;;;;2.50;2.10;;;33.00;38.10;;;;;;4987812;28;20053;-88
2023/06/14 09:01:29;;;;;;;4.88;2.35;;;33.00;38.00;;;;;;4983269;28;20022;-89
2023/06/14 09:03:57;;;;;;;3.70;2.30;;;33.00;37.90;;;;;;4980267;28;20049;-92
2023/06/14 09:06:24;;;;;;;2.88;2.20;;;33.10;38.00;;;;;;4985689;28;20049;-91
2023/06/14 09:08:51;;;;;;;2.28;2.08;;;33.20;37.90;;;;;;4986486;28;20628;-88
2023/06/14 09:11:18;;;;;;;4.32;2.20;;;33.20;37.70;;;;;;4981380;28;20034;-83
2023/06/14 09:13:46;;;;;;;4.53;2.33;;;33.30;38.20;;;;;;4983518;28;20045;-86
2023/06/14 09:16:15;;;;;;;4.53;2.05;;;33.30;37.50;;;;;;4980949;28;20038;-90
2023/06/14 09:18:49;;;;;;;6.65;3.70;;;33.40;37.70;;;;;;4978400;28;20177;-85
2023/06/14 09:21:19;;;;;;;4.28;3.30;;;33.40;36.90;;;;;;4983439;28;20088;-91
2023/06/14 09:23:47;;;;;;;6.32;2.88;;;33.20;36.10;;;;;;4970529;28;20468;-92
2023/06/14 09:26:15;;;;;;;3.22;2.80;;;33.00;35.50;;;;;;4977064;28;20042;-84
2023/06/14 09:28:50;;;;;;;4.70;2.97;;;32.80;35.10;;;;;;4983131;28;20504;-88
2023/06/14 09:31:18;;;;;;;4.43;2.70;;;32.60;34.90;;;;;;4982461;28;20042;-86
2023/06/14 09:33:47;;;;;;;4.18;2.40;;;32.50;34.90;;;;;;4973028;28;20492;-88
2023/06/14 09:36:25;;;;;;;5.00;3.13;;;32.50;34.70;;;;;;5002260;28;20057;-87
2023/06/14 09:38:58;;;;;;;6.88;3.13;;;32.50;34.50;;;;;;4981157;28;20037;-89
2023/06/14 09:41:32;;;;;;;5.05;2.30;;;32.50;34.30;;;;;;4964642;28;20054;-83
2023/06/14 09:44:03;;;;;;;2.90;2.47;;;32.50;34.50;;;;;;4977311;28;20049;-82
2023/06/14 09:46:30;;;;;;;3.03;2.67;;;32.60;34.00;;;;;;4976040;28;20047;-83
2023/06/14 09:49:00;;;;;;;3.33;2.35;;;32.60;33.90;;;;;;4980287;28;20125;-84
2023/06/14 09:51:27;;;;;;;3.53;2.45;;;32.70;33.80;;;;;;4981651;28;20079;-85
2023/06/14 09:54:04;;;;;;;5.35;3.03;;;32.80;33.60;;;;;;4979265;28;20039;-88
2023/06/14 09:56:46;;;;;;;2.95;2.33;;;32.90;33.40;;;;;;4970388;28;20042;-82
2023/06/14 09:59:15;;;;;;;2.80;2.55;;;33.00;33.00;;;;;;4985367;28;20034;-88
2023/06/14 10:01:43;;;;;;;4.60;2.40;;;33.10;33.30;;;;;;4979672;28;20068;-85
2023/06/14 10:04:10;;;;;;;3.30;2.72;;;33.20;33.20;;;;;;4977711;28;20484;-85
2023/06/14 10:06:45;;;;;;;4.18;2.65;;;33.20;33.00;;;;;;4986937;28;20054;-84
2023/06/14 10:09:14;;;;;;;3.28;2.33;;;33.40;33.00;;;;;;4974963;28;20061;-86
2023/06/14 10:11:46;;;;;;;3.13;2.88;;;33.40;32.90;;;;;;4974160;28;20406;-87
2023/06/14 10:14:15;;;;;;;4.07;2.65;;;33.50;32.80;;;;;;4982167;28;20426;-88
2023/06/14 10:16:52;;;;;;;2.90;2.65;;;33.50;32.80;;;;;;4976331;28;20019;-88
2023/06/14 10:19:47;;;;;;;4.97;3.17;;;33.60;32.70;;;;;;4982830;28;20037;-86
2023/06/14 10:22:27;;;;;;;;;;;33.70;32.80;;;;;;4971879;28;20277;-83
2023/06/14 10:24:53;;;;;;;3.67;2.72;;;33.80;33.10;;;;;;4979470;28;19952;-88
2023/06/14 10:27:23;;;;;;;4.57;2.75;;;33.90;33.10;;;;;;4980364;28;20146;-88
2023/06/14 10:29:58;;;;;;;2.83;2.38;;;34.00;32.90;;;;;;4984020;28;20037;-86
2023/06/14 10:32:28;;;;;;;3.90;2.47;;;34.00;32.70;;;;;;4985151;28;20064;-89
2023/06/14 10:35:06;;;;;;;3.03;2.45;;;34.10;32.60;;;;;;4978218;28;20034;-88
2023/06/14 10:37:36;;;;;;;5.68;2.88;;;34.10;32.30;;;;;;4981880;28;20401;-85
2023/06/14 10:40:11;;;;;;;3.42;2.70;;;34.20;32.30;;;;;;4983215;28;20038;-84
2023/06/14 10:42:51;;;;;;;3.50;2.80;;;34.30;32.10;;;;;;4977902;28;20701;-85
2023/06/14 10:45:20;;;;;;;2.90;2.55;;;34.40;32.00;;;;;;4981718;28;20038;-85
2023/06/14 10:47:52;;;;;;;4.93;2.70;;;34.40;32.00;;;;;;4973588;28;20177;-87
2023/06/14 10:50:29;;;;;;;3.92;2.63;;;34.50;31.90;;;;;;4978929;28;20210;-87
2023/06/14 10:52:56;;;;;;;3.10;2.75;;;34.60;31.70;;;;;;4995318;28;20054;-90
2023/06/14 10:55:22;;;;;;;3.63;2.97;;;34.70;31.80;;;;;;4978979;28;20502;-89
2023/06/14 10:57:55;;;;;;;2.47;2.28;;;34.70;31.70;;;;;;4981147;28;20209;-85
2023/06/14 11:00:24;;;;;;;6.18;3.00;;;34.80;31.60;;;;;;4985316;28;20078;-84
2023/06/14 11:03:09;;;;;;;5.38;2.50;;;34.80;31.50;;;;;;4980970;28;20038;-83
2023/06/14 11:05:52;;;;;;;2.83;2.35;;;35.00;31.50;;;;;;4981734;28;20550;-86
2023/06/14 11:08:55;;;;;;;6.05;2.63;;;35.10;31.40;;;;;;5002681;28;20287;-92
2023/06/14 11:11:23;;;;;;;4.93;2.78;;;35.10;31.10;;;;;;4982981;28;20030;-85
2023/06/14 11:13:51;;;;;;;2.72;2.20;;;35.20;31.20;;;;;;4982549;28;20600;-93
2023/06/14 11:16:21;;;;;;;3.35;2.70;;;35.20;31.00;;;;;;4982177;28;20506;-89
2023/06/14 11:18:49;;;;;;;3.75;2.67;;;35.30;30.90;;;;;;4980117;28;20045;-91
2023/06/14 11:21:18;;;;;;;7.75;3.60;;;35.40;30.90;;;;;;4979314;28;20030;-83
2023/06/14 11:23:56;;;;;;;4.15;2.72;;;35.50;30.80;;;;;;4964740;28;20548;-85
2023/06/14 11:26:30;;;;;;;5.22;2.47;;;35.60;30.80;;;;;;4981784;28;20540;-88
2023/06/14 11:28:58;;;;;;;5.70;3.00;;;35.60;30.70;;;;;;4984137;28;20524;-87
2023/06/14 11:31:24;;;;;;;8.02;3.15;;;35.70;30.70;;;;;;4984366;28;20129;-87
2023/06/14 11:33:55;;;;;;;4.43;2.53;;;35.80;30.70;;;;;;4978511;28;20039;-85
2023/06/14 11:36:31;;;;;;;3.22;2.78;;;35.90;30.60;;;;;;4979615;28;20042;-83
2023/06/14 11:39:08;;;;;;;4.95;3.28;;;36.00;30.50;;;;;;4984695;28;20360;-84
2023/06/14 11:41:44;;;;;;;4.25;2.28;;;36.00;30.50;;;;;;4985203;28;20037;-83
2023/06/14 11:44:12;;;;;;;6.05;3.28;;;36.20;30.50;;;;;;4981054;28;20121;-82
2023/06/14 11:46:44;;;;;;;3.08;2.67;;;36.20;30.40;;;;;;4963703;28;20054;-83
2023/06/14 11:49:19;;;;;;;3.80;3.00;;;36.30;30.40;;;;;;4981839;28;20030;-84
2023/06/14 11:51:53;;;;;;;3.42;2.47;;;36.40;30.40;;;;;;4971532;28;20199;-84
2023/06/14 11:54:19;;;;;;;3.90;3.00;;;36.50;30.30;;;;;;4981320;28;20169;-84
2023/06/14 11:56:46;;;;;;;4.55;2.65;;;36.50;30.30;;;;;;4979991;28;20041;-84
2023/06/14 11:59:13;;;;;;;4.57;2.83;;;36.50;30.10;;;;;;4979200;28;20484;-84
2023/06/14 12:01:43;;;;;;;3.88;2.95;;;36.60;30.10;;;;;;4982510;28;20145;-83
2023/06/14 12:04:09;;;;;;;5.10;2.65;;;36.70;30.10;;;;;;4990869;28;20038;-82
2023/06/14 12:06:39;;;;;;;5.28;3.33;;;36.70;30.20;;;;;;4982117;28;20042;-85
2023/06/14 12:09:10;;;;;;;4.55;3.08;;;36.80;30.20;;;;;;4983566;28;20034;-84
2023/06/14 12:11:36;;;;;;;4.57;2.88;;;36.80;30.10;;;;;;4971794;28;20060;-82
2023/06/14 12:14:04;;;;;;;3.72;2.90;;;36.80;30.00;;;;;;4980050;28;20038;-90
2023/06/14 12:16:35;;;;;;;3.05;2.75;;;36.90;30.10;;;;;;4978869;28;20037;-89
2023/06/14 12:19:15;;;;;;;5.03;3.05;;;36.90;30.10;;;;;;4981471;28;20044;-84
2023/06/14 12:21:42;;;;;;;4.65;3.28;;;37.00;30.10;;;;;;4981354;28;20050;-87
2023/06/14 12:24:17;;;;;;;3.80;3.08;;;37.10;30.30;;;;;;4990780;28;20030;-86
2023/06/14 12:26:46;;;;;;;5.60;3.60;;;37.10;30.10;;;;;;4985977;28;20092;-88
2023/06/14 12:29:19;;;;;;;3.85;2.63;;;37.20;30.10;;;;;;4989032;28;20137;-85
2023/06/14 12:31:48;;;;;;;4.82;2.60;;;37.20;30.00;;;;;;4981656;28;20057;-88
2023/06/14 12:34:15;;;;;;;5.22;2.88;;;37.30;30.00;;;;;;4984116;28;20030;-87
2023/06/14 12:37:03;;;;;;;3.28;2.72;;;37.40;30.00;;;;;;4923650;28;20422;-86
2023/06/14 12:39:31;;;;;;;4.88;3.40;;;37.50;30.00;;;;;;4978192;28;20081;-85
2023/06/14 12:41:57;;;;;;;5.22;3.30;;;37.50;30.00;;;;;;4980231;28;20461;-85
2023/06/14 12:44:23;;;;;;;4.45;3.28;;;37.70;30.00;;;;;;4978030;28;20328;-82
2023/06/14 12:46:51;;;;;;;10.57;2.70;;;37.70;30.00;;;;;;4982555;28;20518;-84
2023/06/14 12:49:20;;;;;;;5.00;3.50;;;37.70;29.90;;;;;;4980237;28;20556;-84
2023/06/14 12:51:49;;;;;;;3.80;2.97;;;37.90;29.90;;;;;;4960143;28;20031;-82
2023/06/14 12:54:18;;;;;;;3.38;3.00;;;37.90;29.80;;;;;;4979352;28;20042;-84
2023/06/14 12:56:44;;;;;;;4.32;3.17;;;38.00;29.80;;;;;;4979103;28;20474;-86
2023/06/14 12:59:14;;;;;;;5.18;3.25;;;38.10;29.80;;;;;;4980412;28;20172;-85
2023/06/14 13:01:40;;;;;;;5.10;3.47;;;38.20;29.80;;;;;;4977900;28;20030;-86